createdAt,value
2023-02-27T00:00:30.718Z,12.25
2023-02-27T00:02:58.361Z,13.10
2023-02-27T00:05:25.958Z,9.95
2023-02-27T00:07:53.013Z,13.35
2023-02-27T00:10:20.551Z,25.20
2023-02-27T00:12:47.557Z,13.98
2023-02-27T00:15:17.813Z,13.15
2023-02-27T00:17:45.386Z,14.35
2023-02-27T00:20:14.990Z,13.10
2023-02-27T00:22:43.074Z,12.73
2023-02-27T00:25:11.476Z,19.98
2023-02-27T00:27:39.073Z,18.92
2023-02-27T00:30:09.223Z,16.67
2023-02-27T00:32:36.700Z,15.45
2023-02-27T00:35:06.116Z,13.98
2023-02-27T00:37:34.388Z,9.85
2023-02-27T00:40:01.661Z,12.18
2023-02-27T00:42:30.829Z,18.70
2023-02-27T00:44:58.137Z,18.88
2023-02-27T00:47:25.125Z,12.82
2023-02-27T00:49:53.669Z,16.67
2023-02-27T00:52:20.791Z,15.18
2023-02-27T00:54:47.860Z,13.35
2023-02-27T00:57:14.930Z,24.83
2023-02-27T00:59:42.345Z,16.95
2023-02-27T01:02:09.341Z,14.63
2023-02-27T01:04:36.776Z,13.93
2023-02-27T01:07:03.838Z,19.40
2023-02-27T01:09:30.849Z,11.82
2023-02-27T01:11:57.856Z,16.90
2023-02-27T01:14:25.539Z,13.80
2023-02-27T01:16:52.813Z,17.38
2023-02-27T01:19:19.855Z,15.20
2023-02-27T01:21:46.905Z,12.98
2023-02-27T01:24:14.008Z,17.17
2023-02-27T01:26:41.228Z,14.38
2023-02-27T01:29:09.975Z,16.20
2023-02-27T01:31:38.858Z,19.00
2023-02-27T01:34:05.958Z,10.32
2023-02-27T01:36:33.031Z,13.95
2023-02-27T01:39:00.024Z,12.05
2023-02-27T01:41:27.411Z,21.40
2023-02-27T01:44:04.242Z,11.50
2023-02-27T01:46:32.420Z,17.90
2023-02-27T01:49:23.995Z,12.00
2023-02-27T01:51:56.151Z,14.35
2023-02-27T01:54:26.813Z,10.23
2023-02-27T01:56:53.942Z,11.20
2023-02-27T01:59:21.634Z,10.70
2023-02-27T02:01:51.390Z,14.82
2023-02-27T02:04:38.057Z,12.57
2023-02-27T02:07:08.683Z,9.25
2023-02-27T02:09:51.028Z,8.93
2023-02-27T02:12:21.330Z,8.95
2023-02-27T02:14:48.388Z,8.63
2023-02-27T02:17:32.254Z,10.52
2023-02-27T02:20:30.291Z,17.58
2023-02-27T02:23:18.843Z,10.50
2023-02-27T02:26:29.241Z,6.75
2023-02-27T02:29:38.800Z,9.20
2023-02-27T02:32:27.048Z,10.63
2023-02-27T02:35:16.946Z,21.10
2023-02-27T02:38:02.900Z,8.82
2023-02-27T02:40:46.122Z,8.77
2023-02-27T02:43:50.203Z,6.93
2023-02-27T02:46:35.607Z,8.93
2023-02-27T02:49:28.658Z,8.18
2023-02-27T02:52:05.376Z,12.95
2023-02-27T02:54:42.003Z,5.22
2023-02-27T02:57:17.425Z,7.05
2023-02-27T02:59:53.489Z,7.90
2023-02-27T03:02:25.175Z,9.40
2023-02-27T03:04:59.052Z,15.55
2023-02-27T03:07:47.761Z,5.35
2023-02-27T03:10:20.602Z,10.63
2023-02-27T03:12:52.558Z,7.03
2023-02-27T03:15:30.916Z,12.43
2023-02-27T03:17:59.380Z,9.27
2023-02-27T03:20:33.645Z,8.23
2023-02-27T03:23:09.595Z,15.68
2023-02-27T03:25:38.723Z,7.07
2023-02-27T03:28:11.064Z,6.07
2023-02-27T03:30:45.066Z,5.32
2023-02-27T03:33:24.464Z,7.97
2023-02-27T03:36:04.436Z,9.60
2023-02-27T03:38:46.737Z,6.35
2023-02-27T03:41:31.318Z,8.45
2023-02-27T03:44:28.582Z,8.95
2023-02-27T03:46:55.868Z,10.98
2023-02-27T03:49:23.182Z,11.85
2023-02-27T03:51:50.440Z,6.18
2023-02-27T03:54:27.245Z,6.57
2023-02-27T03:56:57.304Z,11.13
2023-02-27T03:59:24.842Z,6.18
2023-02-27T04:01:56.617Z,6.05
2023-02-27T04:04:25.159Z,6.53
2023-02-27T04:07:35.360Z,7.30
2023-02-27T04:10:17.193Z,8.85
2023-02-27T04:12:53.037Z,9.57
2023-02-27T04:15:47.547Z,7.32
2023-02-27T04:18:29.811Z,6.65
2023-02-27T04:21:05.803Z,7.30
2023-02-27T04:23:45.860Z,7.78
2023-02-27T04:26:33.175Z,6.97
2023-02-27T04:29:23.198Z,6.15
2023-02-27T04:32:10.876Z,7.18
2023-02-27T04:35:20.667Z,9.25
2023-02-27T04:38:00.519Z,6.57
2023-02-27T04:40:35.432Z,5.57
2023-02-27T04:43:07.555Z,7.38
2023-02-27T04:45:38.408Z,9.57
2023-02-27T04:48:14.046Z,6.30
2023-02-27T04:50:46.493Z,7.30
2023-02-27T04:53:20.647Z,6.00
2023-02-27T04:55:54.019Z,3.92
2023-02-27T04:58:29.540Z,5.78
2023-02-27T05:01:13.916Z,13.25
2023-02-27T05:03:47.619Z,5.88
2023-02-27T05:06:19.059Z,9.98
2023-02-27T05:09:11.867Z,7.40
2023-02-27T05:11:48.035Z,10.48
2023-02-27T05:14:38.712Z,9.13
2023-02-27T05:17:31.023Z,10.40
2023-02-27T05:19:59.229Z,5.13
2023-02-27T05:22:30.141Z,6.47
2023-02-27T05:25:35.230Z,6.95
2023-02-27T05:28:06.965Z,11.88
2023-02-27T05:30:52.770Z,6.32
2023-02-27T05:33:31.159Z,9.43
2023-02-27T05:36:15.356Z,8.13
2023-02-27T05:38:50.366Z,7.40
2023-02-27T05:41:23.058Z,9.75
2023-02-27T05:44:12.616Z,10.38
2023-02-27T05:46:45.659Z,11.73
2023-02-27T05:49:31.858Z,9.98
2023-02-27T05:52:02.776Z,7.47
2023-02-27T05:54:44.423Z,11.18
2023-02-27T05:57:17.012Z,9.95
2023-02-27T05:59:52.995Z,10.85
2023-02-27T06:02:20.065Z,9.48
2023-02-27T06:04:47.206Z,10.90
2023-02-27T06:07:14.774Z,17.25
2023-02-27T06:09:43.496Z,15.68
2023-02-27T06:12:10.468Z,14.88
2023-02-27T06:14:37.448Z,9.18
2023-02-27T06:17:04.890Z,12.73
2023-02-27T06:19:31.935Z,13.05
2023-02-27T06:21:58.943Z,25.40
2023-02-27T06:24:26.750Z,16.48
2023-02-27T06:26:53.819Z,13.13
2023-02-27T06:29:20.875Z,17.25
2023-02-27T06:31:47.968Z,13.40
2023-02-27T06:34:15.269Z,16.75
2023-02-27T06:36:42.508Z,13.27
2023-02-27T06:39:09.584Z,19.50
2023-02-27T06:41:36.561Z,7.75
2023-02-27T06:44:03.703Z,9.90
2023-02-27T06:46:31.098Z,12.35
2023-02-27T06:48:58.276Z,12.32
2023-02-27T06:51:25.238Z,9.82
2023-02-27T06:53:52.319Z,8.20
2023-02-27T06:56:19.637Z,13.00
2023-02-27T06:58:46.615Z,9.10
2023-02-27T07:01:14.459Z,10.25
2023-02-27T07:03:41.477Z,23.13
2023-02-27T07:06:08.472Z,10.38
2023-02-27T07:08:35.910Z,6.97
2023-02-27T07:11:02.923Z,10.27
2023-02-27T07:13:30.194Z,9.20
2023-02-27T07:15:57.209Z,7.57
2023-02-27T07:18:25.473Z,9.15
2023-02-27T07:20:52.644Z,13.35
2023-02-27T07:23:19.624Z,7.88
2023-02-27T07:25:47.834Z,17.40
2023-02-27T07:28:15.043Z,12.15
2023-02-27T07:30:42.163Z,11.20
2023-02-27T07:33:09.167Z,12.93
2023-02-27T07:35:36.156Z,16.48
2023-02-27T07:38:03.502Z,8.32
2023-02-27T07:40:30.608Z,11.60
2023-02-27T07:42:57.626Z,16.50
2023-02-27T07:45:24.691Z,13.57
2023-02-27T07:47:51.663Z,15.80
2023-02-27T07:50:18.697Z,13.88
2023-02-27T07:52:45.947Z,15.93
2023-02-27T07:55:14.242Z,15.18
2023-02-27T07:57:41.375Z,12.40
2023-02-27T08:00:09.835Z,15.85
2023-02-27T08:02:40.023Z,16.30
2023-02-27T08:05:07.787Z,11.05
2023-02-27T08:07:36.501Z,19.80
2023-02-27T08:10:04.842Z,15.55
2023-02-27T08:12:31.977Z,22.30
2023-02-27T08:14:59.007Z,16.05
2023-02-27T08:17:25.981Z,12.10
2023-02-27T08:19:52.952Z,9.93
2023-02-27T08:22:19.982Z,14.07
2023-02-27T08:24:46.994Z,10.18
2023-02-27T08:27:14.559Z,12.20
2023-02-27T08:29:43.312Z,13.55
2023-02-27T08:32:10.392Z,17.15
2023-02-27T08:34:37.627Z,5.15
2023-02-27T08:37:04.617Z,11.82
2023-02-27T08:39:31.722Z,7.28
2023-02-27T08:41:58.782Z,7.18
2023-02-27T08:44:25.760Z,7.75
2023-02-27T08:46:52.770Z,10.43
2023-02-27T08:49:21.605Z,9.80
2023-02-27T08:51:48.749Z,7.75
2023-02-27T08:54:15.765Z,6.75
2023-02-27T08:56:42.778Z,7.20
2023-02-27T08:59:09.799Z,2.88
2023-02-27T09:01:36.745Z,8.30
2023-02-27T09:04:05.796Z,2.47
2023-02-27T09:06:35.703Z,1.70
2023-02-27T09:09:04.439Z,4.10
2023-02-27T09:11:32.111Z,3.53
2023-02-27T09:13:59.127Z,2.08
2023-02-27T09:16:27.035Z,5.65
2023-02-27T09:18:54.599Z,1.65
2023-02-27T09:21:23.458Z,2.65
2023-02-27T09:23:51.900Z,0.85
2023-02-27T09:26:18.998Z,0.70
2023-02-27T09:28:46.072Z,1.00
2023-02-27T09:31:13.313Z,1.45
2023-02-27T09:33:40.401Z,3.95
2023-02-27T09:36:08.248Z,1.83
2023-02-27T09:38:35.907Z,0.55
2023-02-27T09:41:05.348Z,5.72
2023-02-27T09:43:43.587Z,11.18
2023-02-27T09:46:17.619Z,1.48
2023-02-27T09:48:50.826Z,7.95
2023-02-27T09:51:19.813Z,1.60
2023-02-27T09:53:50.213Z,0.25
2023-02-27T09:56:23.190Z,1.75
2023-02-27T09:58:54.702Z,1.02
2023-02-27T10:01:23.902Z,3.63
2023-02-27T10:04:03.072Z,3.30
2023-02-27T10:06:36.970Z,0.30
2023-02-27T10:09:27.545Z,1.88
2023-02-27T10:12:12.486Z,2.15
2023-02-27T10:14:42.709Z,1.10
2023-02-27T10:17:27.773Z,3.90
2023-02-27T10:19:56.020Z,2.13
2023-02-27T10:22:35.257Z,2.53
2023-02-27T10:25:25.013Z,1.80
2023-02-27T10:28:08.784Z,1.15
2023-02-27T10:30:36.286Z,1.05
2023-02-27T10:33:10.359Z,3.45
2023-02-27T10:35:39.826Z,10.88
2023-02-27T10:38:14.360Z,0.93
2023-02-27T10:40:42.622Z,0.95
2023-02-27T10:43:13.269Z,0.68
2023-02-27T10:45:40.266Z,5.15
2023-02-27T10:48:08.414Z,2.78
2023-02-27T10:50:38.133Z,0.45
2023-02-27T10:53:16.620Z,4.55
2023-02-27T10:55:45.076Z,0.47
2023-02-27T10:58:19.275Z,0.40
2023-02-27T11:00:59.526Z,3.63
2023-02-27T11:03:30.028Z,0.85
2023-02-27T11:05:59.472Z,2.60
2023-02-27T11:08:28.930Z,0.30
2023-02-27T11:11:09.462Z,3.00
2023-02-27T11:13:40.028Z,1.38
2023-02-27T11:16:23.706Z,3.13
2023-02-27T11:18:52.496Z,15.52
2023-02-27T11:21:22.731Z,6.22
2023-02-27T11:23:58.928Z,0.73
2023-02-27T11:26:38.057Z,3.88
2023-02-27T11:29:18.179Z,1.20
2023-02-27T11:31:51.875Z,9.38
2023-02-27T11:34:29.041Z,0.30
2023-02-27T11:37:00.484Z,3.00
2023-02-27T11:39:49.030Z,9.20
2023-02-27T11:42:31.996Z,1.42
2023-02-27T11:45:07.289Z,9.23
2023-02-27T11:47:37.577Z,1.35
2023-02-27T11:50:23.523Z,2.78
2023-02-27T11:52:59.667Z,0.52
2023-02-27T11:55:30.382Z,9.57
2023-02-27T11:58:20.218Z,6.50
2023-02-27T12:01:09.567Z,8.15
2023-02-27T12:03:45.394Z,5.22
2023-02-27T12:06:21.107Z,5.97
2023-02-27T12:08:52.428Z,2.42
2023-02-27T12:11:29.149Z,1.63
2023-02-27T12:14:09.727Z,11.57
2023-02-27T12:17:08.640Z,0.98
2023-02-27T12:19:43.000Z,1.42
2023-02-27T12:22:20.843Z,4.15
2023-02-27T12:24:55.875Z,2.72
2023-02-27T12:27:29.171Z,2.28
2023-02-27T12:30:05.280Z,7.80
2023-02-27T12:32:40.723Z,5.97
2023-02-27T12:35:24.870Z,7.20
2023-02-27T12:37:52.585Z,1.25
2023-02-27T12:40:25.877Z,2.53
2023-02-27T12:43:18.817Z,2.97
2023-02-27T12:48:39.660Z,6.45
2023-02-27T12:51:19.772Z,3.03
2023-02-27T12:53:57.235Z,0.60
2023-02-27T12:56:35.832Z,2.92
2023-02-27T12:59:28.742Z,7.13
2023-02-27T13:05:40.861Z,1.90
2023-02-27T13:08:26.362Z,1.23
2023-02-27T13:11:05.962Z,3.08
2023-02-27T13:13:41.905Z,3.03
2023-02-27T13:16:22.498Z,1.65
2023-02-27T13:18:56.955Z,1.20
2023-02-27T13:21:24.007Z,1.33
2023-02-27T13:24:02.735Z,4.78
2023-02-27T13:26:41.685Z,1.65
2023-02-27T13:29:15.385Z,1.23
2023-02-27T13:32:00.078Z,4.38
2023-02-27T13:34:45.163Z,2.95
2023-02-27T13:37:12.217Z,1.27
2023-02-27T13:39:48.834Z,1.70
2023-02-27T13:42:44.523Z,2.58
2023-02-27T13:45:49.789Z,3.88
2023-02-27T13:48:42.805Z,0.70
2023-02-27T13:54:17.521Z,4.07
2023-02-27T13:56:47.475Z,0.40
2023-02-27T13:59:31.387Z,0.63
2023-02-27T14:02:10.386Z,1.40
2023-02-27T14:04:50.230Z,1.00
2023-02-27T14:07:21.430Z,2.35
2023-02-27T14:09:51.852Z,3.08
2023-02-27T14:12:44.663Z,1.77
2023-02-27T14:15:24.554Z,2.72
2023-02-27T14:18:12.666Z,1.30
2023-02-27T14:20:42.795Z,6.93
2023-02-27T14:23:15.586Z,8.88
2023-02-27T14:26:16.286Z,2.83
2023-02-27T14:28:53.895Z,1.38
2023-02-27T14:31:25.610Z,2.50
2023-02-27T14:33:55.636Z,0.85
2023-02-27T14:36:28.095Z,2.20
2023-02-27T14:38:57.416Z,0.88
2023-02-27T14:41:34.249Z,3.95
2023-02-27T14:44:02.338Z,6.15
2023-02-27T14:46:39.267Z,5.05
2023-02-27T14:49:18.092Z,4.00
2023-02-27T14:51:45.134Z,6.30
2023-02-27T14:54:19.700Z,7.00
2023-02-27T14:57:01.378Z,1.02
2023-02-27T14:59:43.840Z,4.00
2023-02-27T15:02:16.821Z,3.58
2023-02-27T15:04:45.318Z,1.30
2023-02-27T15:07:24.809Z,0.60
2023-02-27T15:09:54.862Z,0.65
2023-02-27T15:12:23.525Z,2.33
2023-02-27T15:14:57.844Z,4.45
2023-02-27T15:17:28.179Z,2.88
2023-02-27T15:19:59.417Z,2.00
2023-02-27T15:22:38.404Z,2.67
2023-02-27T15:25:25.638Z,3.00
2023-02-27T15:27:52.796Z,1.75
2023-02-27T15:30:21.636Z,2.00
2023-02-27T15:32:49.474Z,2.25
2023-02-27T15:35:16.417Z,2.85
2023-02-27T15:37:49.543Z,4.32
2023-02-27T15:40:22.305Z,0.70
2023-02-27T15:42:50.435Z,0.55
2023-02-27T15:45:20.293Z,2.78
2023-02-27T15:47:48.282Z,3.42
2023-02-27T15:50:18.224Z,4.20
2023-02-27T15:52:54.050Z,9.15
2023-02-27T15:56:01.931Z,2.28
2023-02-27T15:58:32.804Z,12.98
2023-02-27T16:01:03.289Z,2.58
2023-02-27T16:03:35.764Z,3.10
2023-02-27T16:06:10.847Z,3.60
2023-02-27T16:08:44.656Z,1.25
2023-02-27T16:11:23.288Z,1.55
2023-02-27T16:13:51.676Z,9.10
2023-02-27T16:16:35.100Z,6.85
2023-02-27T16:19:23.797Z,3.75
2023-02-27T16:22:06.651Z,2.15
2023-02-27T16:27:01.775Z,2.08
2023-02-27T16:29:40.067Z,5.72
2023-02-27T16:32:22.374Z,1.70
2023-02-27T16:34:49.704Z,2.25
2023-02-27T16:37:22.864Z,2.30
2023-02-27T16:39:51.987Z,2.17
2023-02-27T16:42:19.329Z,2.03
2023-02-27T16:44:46.706Z,1.40
2023-02-27T16:47:13.739Z,2.30
2023-02-27T16:49:41.003Z,3.17
2023-02-27T16:52:11.518Z,3.35
2023-02-27T16:54:38.584Z,5.03
2023-02-27T16:57:06.023Z,2.33
2023-02-27T16:59:39.705Z,9.15
2023-02-27T17:02:15.086Z,1.73
2023-02-27T17:04:47.792Z,7.38
2023-02-27T17:07:17.594Z,3.20
2023-02-27T17:09:45.997Z,5.80
2023-02-27T17:12:13.647Z,2.63
2023-02-27T17:14:40.692Z,3.28
2023-02-27T17:17:08.378Z,5.40
2023-02-27T17:19:35.380Z,2.35
2023-02-27T17:22:03.001Z,7.10
2023-02-27T17:24:30.014Z,6.22
2023-02-27T17:26:56.973Z,3.53
2023-02-27T17:29:24.163Z,3.03
2023-02-27T17:31:51.458Z,3.45
2023-02-27T17:34:18.644Z,4.68
2023-02-27T17:36:45.703Z,3.67
2023-02-27T17:39:14.125Z,2.03
2023-02-27T17:41:42.849Z,2.58
2023-02-27T17:44:13.458Z,1.75
2023-02-27T17:46:41.268Z,1.88
2023-02-27T17:49:09.444Z,7.45
2023-02-27T17:51:36.502Z,4.93
2023-02-27T17:54:05.109Z,3.08
2023-02-27T17:56:32.618Z,3.03
2023-02-27T17:58:59.836Z,4.40
2023-02-27T18:01:27.254Z,7.72
2023-02-27T18:03:54.792Z,7.45
2023-02-27T18:06:23.083Z,3.78
2023-02-27T18:08:50.332Z,4.03
2023-02-27T18:11:20.493Z,6.25
2023-02-27T18:13:48.609Z,3.33
2023-02-27T18:16:16.201Z,3.30
2023-02-27T18:18:43.743Z,6.78
2023-02-27T18:21:24.503Z,7.07
2023-02-27T18:23:52.430Z,6.45
2023-02-27T18:26:30.560Z,6.88
2023-02-27T18:29:00.770Z,10.60
2023-02-27T18:31:30.774Z,12.68
2023-02-27T18:33:58.257Z,7.13
2023-02-27T18:36:25.315Z,15.77
2023-02-27T18:38:52.310Z,4.63
2023-02-27T18:41:19.298Z,4.38
2023-02-27T18:43:46.374Z,7.80
2023-02-27T18:46:13.841Z,5.28
2023-02-27T18:48:44.279Z,9.13
2023-02-27T18:51:14.558Z,11.52
2023-02-27T18:53:44.379Z,5.30
2023-02-27T18:56:12.585Z,9.27
2023-02-27T18:58:39.683Z,7.43
2023-02-27T19:01:07.447Z,13.57
2023-02-27T19:03:35.978Z,12.70
2023-02-27T19:06:03.484Z,7.45
2023-02-27T19:08:31.379Z,4.32
2023-02-27T19:10:58.904Z,6.93
2023-02-27T19:13:26.523Z,7.95
2023-02-27T19:15:54.498Z,6.00
2023-02-27T19:18:21.586Z,4.30
2023-02-27T19:20:48.602Z,7.88
2023-02-27T19:23:15.708Z,9.52
2023-02-27T19:25:42.756Z,11.05
2023-02-27T19:28:11.513Z,8.88
2023-02-27T19:30:39.674Z,13.32
2023-02-27T19:33:06.672Z,14.00
2023-02-27T19:35:33.896Z,15.07
2023-02-27T19:38:00.869Z,12.90
2023-02-27T19:40:28.270Z,8.68
2023-02-27T19:42:55.388Z,7.57
2023-02-27T19:45:23.238Z,12.05
2023-02-27T19:47:50.347Z,6.15
2023-02-27T19:50:17.696Z,8.32
2023-02-27T19:52:44.746Z,13.30
2023-02-27T19:55:11.771Z,7.05
2023-02-27T19:57:38.816Z,6.72
2023-02-27T20:00:07.426Z,12.10
2023-02-27T20:02:41.085Z,9.48
2023-02-27T20:05:08.731Z,6.60
2023-02-27T20:07:35.781Z,6.90
2023-02-27T20:10:02.948Z,11.55
2023-02-27T20:12:29.921Z,8.63
2023-02-27T20:14:56.918Z,7.22
2023-02-27T20:17:25.004Z,14.40
2023-02-27T20:19:51.977Z,8.50
2023-02-27T20:22:18.964Z,9.80
2023-02-27T20:24:46.245Z,7.90
2023-02-27T20:27:15.076Z,5.63
2023-02-27T20:29:42.102Z,10.65
2023-02-27T20:32:09.363Z,8.90
2023-02-27T20:34:36.410Z,12.13
2023-02-27T20:37:03.548Z,9.48
2023-02-27T20:39:31.213Z,13.07
2023-02-27T20:41:58.376Z,8.20
2023-02-27T20:44:25.487Z,7.45
2023-02-27T20:46:52.601Z,7.28
2023-02-27T20:49:19.564Z,8.10
2023-02-27T20:51:46.654Z,6.18
2023-02-27T20:54:19.830Z,7.38
2023-02-27T20:56:51.653Z,8.10
2023-02-27T20:59:20.608Z,4.40
2023-02-27T21:01:51.895Z,7.68
2023-02-27T21:04:22.066Z,4.00
2023-02-27T21:06:50.265Z,5.88
2023-02-27T21:09:18.783Z,5.72
2023-02-27T21:11:45.897Z,7.57
2023-02-27T21:14:12.947Z,5.43
2023-02-27T21:16:40.536Z,7.82
2023-02-27T21:19:08.543Z,6.82
2023-02-27T21:21:36.717Z,5.45
2023-02-27T21:24:04.296Z,5.85
2023-02-27T21:26:38.115Z,3.90
2023-02-27T21:29:13.359Z,5.07
2023-02-27T21:31:44.985Z,7.50
2023-02-27T21:34:14.937Z,6.15
2023-02-27T21:36:44.851Z,7.82
2023-02-27T21:39:15.320Z,3.72
2023-02-27T21:41:43.424Z,2.97
2023-02-27T21:44:13.784Z,5.82
2023-02-27T21:46:41.153Z,7.20
2023-02-27T21:49:08.183Z,6.00
2023-02-27T21:51:40.760Z,10.25
2023-02-27T21:54:11.398Z,12.18
2023-02-27T21:56:39.067Z,8.25
2023-02-27T21:59:06.416Z,4.03
2023-02-27T22:01:34.066Z,5.25
2023-02-27T22:04:01.819Z,6.50
2023-02-27T22:06:33.899Z,5.57
2023-02-27T22:09:04.920Z,7.70
2023-02-27T22:11:34.224Z,4.47
2023-02-27T22:14:02.068Z,2.90
2023-02-27T22:16:29.111Z,8.75
2023-02-27T22:18:56.080Z,5.25
2023-02-27T22:21:27.001Z,5.93
2023-02-27T22:23:55.171Z,8.57
2023-02-27T22:26:24.711Z,14.00
2023-02-27T22:28:52.555Z,16.58
2023-02-27T22:31:22.589Z,19.42
2023-02-27T22:33:52.151Z,18.60
2023-02-27T22:36:25.374Z,16.10
2023-02-27T22:38:52.815Z,20.35
2023-02-27T22:41:23.430Z,17.52
2023-02-27T22:43:51.210Z,16.33
2023-02-27T22:46:25.852Z,12.73
2023-02-27T22:49:01.426Z,9.70
2023-02-27T22:51:29.143Z,9.38
2023-02-27T22:54:00.370Z,6.22
2023-02-27T22:56:27.732Z,9.75
2023-02-27T22:58:54.792Z,10.98
2023-02-27T23:01:24.488Z,5.97
2023-02-27T23:03:53.378Z,3.83
2023-02-27T23:06:26.593Z,4.53
2023-02-27T23:08:54.016Z,9.32
2023-02-27T23:11:21.632Z,4.90
2023-02-27T23:13:49.179Z,4.78
2023-02-27T23:16:17.420Z,9.18
2023-02-27T23:18:47.698Z,6.15
2023-02-27T23:21:17.081Z,9.43
2023-02-27T23:23:44.569Z,3.55
2023-02-27T23:26:12.172Z,2.53
2023-02-27T23:28:39.484Z,2.88
2023-02-27T23:31:07.910Z,8.85
2023-02-27T23:33:35.328Z,7.22
2023-02-27T23:36:02.964Z,3.17
2023-02-27T23:38:30.381Z,3.67
2023-02-27T23:40:57.746Z,4.68
2023-02-27T23:43:43.302Z,5.28
2023-02-27T23:46:13.456Z,6.88
2023-02-27T23:48:41.243Z,1.95
2023-02-27T23:51:10.128Z,5.82
2023-02-27T23:53:40.006Z,2.90
2023-02-27T23:56:13.091Z,6.72
2023-02-27T23:58:40.062Z,2.35
